sensor_id;sensor_type;location;lat;lon;timestamp;P1;durP1;ratioP1;P2;durP2;ratioP2
39102;SDS011;24847;48.218;16.414;2022-08-04T00:01:06;4.03;;;3.00;;
39102;SDS011;24847;48.218;16.414;2022-08-04T00:06:13;4.05;;;2.90;;
39102;SDS011;24847;48.218;16.414;2022-08-04T00:11:29;4.40;;;2.60;;
39102;SDS011;24847;48.218;16.414;2022-08-04T00:16:34;4.32;;;3.17;;
39102;SDS011;24847;48.218;16.414;2022-08-04T00:21:41;5.93;;;3.13;;
39102;SDS011;24847;48.218;16.414;2022-08-04T00:26:52;3.85;;;2.90;;
39102;SDS011;24847;48.218;16.414;2022-08-04T00:31:54;3.67;;;3.13;;
39102;SDS011;24847;48.218;16.414;2022-08-04T00:36:57;3.42;;;3.13;;
39102;SDS011;24847;48.218;16.414;2022-08-04T00:42:16;3.42;;;2.63;;
39102;SDS011;24847;48.218;16.414;2022-08-04T00:47:38;3.60;;;2.90;;
39102;SDS011;24847;48.218;16.414;2022-08-04T00:53:05;5.10;;;3.40;;
39102;SDS011;24847;48.218;16.414;2022-08-04T01:03:48;4.97;;;3.10;;
39102;SDS011;24847;48.218;16.414;2022-08-04T01:09:03;6.70;;;3.17;;
39102;SDS011;24847;48.218;16.414;2022-08-04T01:14:32;4.65;;;3.10;;
39102;SDS011;24847;48.218;16.414;2022-08-04T01:19:53;4.30;;;2.60;;
39102;SDS011;24847;48.218;16.414;2022-08-04T01:25:07;5.35;;;3.10;;
39102;SDS011;24847;48.218;16.414;2022-08-04T01:30:32;4.83;;;2.80;;
39102;SDS011;24847;48.218;16.414;2022-08-04T01:35:38;4.72;;;2.58;;
39102;SDS011;24847;48.218;16.414;2022-08-04T01:40:46;3.97;;;2.80;;
39102;SDS011;24847;48.218;16.414;2022-08-04T01:45:57;4.85;;;2.95;;
39102;SDS011;24847;48.218;16.414;2022-08-04T01:51:02;3.63;;;2.85;;
39102;SDS011;24847;48.218;16.414;2022-08-04T01:56:07;5.78;;;2.72;;
39102;SDS011;24847;48.218;16.414;2022-08-04T02:01:13;4.07;;;2.85;;
39102;SDS011;24847;48.218;16.414;2022-08-04T02:06:17;4.28;;;3.00;;
39102;SDS011;24847;48.218;16.414;2022-08-04T02:11:31;4.95;;;2.90;;
39102;SDS011;24847;48.218;16.414;2022-08-04T02:16:38;3.60;;;2.58;;
39102;SDS011;24847;48.218;16.414;2022-08-04T02:21:50;4.70;;;2.67;;
39102;SDS011;24847;48.218;16.414;2022-08-04T02:27:02;6.13;;;3.15;;
39102;SDS011;24847;48.218;16.414;2022-08-04T02:32:09;3.78;;;2.80;;
39102;SDS011;24847;48.218;16.414;2022-08-04T02:37:21;4.43;;;2.85;;
39102;SDS011;24847;48.218;16.414;2022-08-04T02:42:25;4.40;;;3.35;;
39102;SDS011;24847;48.218;16.414;2022-08-04T02:47:31;5.30;;;3.00;;
39102;SDS011;24847;48.218;16.414;2022-08-04T02:52:35;4.30;;;2.60;;
39102;SDS011;24847;48.218;16.414;2022-08-04T02:57:38;5.85;;;3.15;;
39102;SDS011;24847;48.218;16.414;2022-08-04T03:02:47;4.80;;;3.10;;
39102;SDS011;24847;48.218;16.414;2022-08-04T03:08:06;3.88;;;2.90;;
39102;SDS011;24847;48.218;16.414;2022-08-04T03:19:31;2.85;;;2.50;;
39102;SDS011;24847;48.218;16.414;2022-08-04T03:31:22;4.40;;;3.17;;
39102;SDS011;24847;48.218;16.414;2022-08-04T03:37:22;7.60;;;3.70;;
39102;SDS011;24847;48.218;16.414;2022-08-04T03:48:51;3.42;;;3.03;;
39102;SDS011;24847;48.218;16.414;2022-08-04T03:54:20;5.15;;;2.80;;
39102;SDS011;24847;48.218;16.414;2022-08-04T04:00:02;6.30;;;3.10;;
39102;SDS011;24847;48.218;16.414;2022-08-04T04:05:17;4.20;;;2.83;;
39102;SDS011;24847;48.218;16.414;2022-08-04T04:16:42;4.90;;;3.15;;
39102;SDS011;24847;48.218;16.414;2022-08-04T04:28:00;5.22;;;3.20;;
39102;SDS011;24847;48.218;16.414;2022-08-04T04:33:28;5.20;;;3.25;;
39102;SDS011;24847;48.218;16.414;2022-08-04T04:38:43;3.30;;;3.00;;
39102;SDS011;24847;48.218;16.414;2022-08-04T04:44:14;4.53;;;3.33;;
39102;SDS011;24847;48.218;16.414;2022-08-04T04:49:50;5.00;;;3.53;;
39102;SDS011;24847;48.218;16.414;2022-08-04T04:55:02;6.25;;;3.47;;
39102;SDS011;24847;48.218;16.414;2022-08-04T05:00:16;6.13;;;3.60;;
39102;SDS011;24847;48.218;16.414;2022-08-04T05:11:04;6.13;;;3.35;;
39102;SDS011;24847;48.218;16.414;2022-08-04T05:16:36;6.07;;;3.42;;
39102;SDS011;24847;48.218;16.414;2022-08-04T05:21:43;5.07;;;3.53;;
39102;SDS011;24847;48.218;16.414;2022-08-04T05:26:50;6.05;;;3.90;;
39102;SDS011;24847;48.218;16.414;2022-08-04T05:31:58;6.50;;;3.72;;
39102;SDS011;24847;48.218;16.414;2022-08-04T05:37:05;5.25;;;3.88;;
39102;SDS011;24847;48.218;16.414;2022-08-04T05:42:11;4.35;;;3.80;;
39102;SDS011;24847;48.218;16.414;2022-08-04T05:47:16;5.93;;;3.85;;
39102;SDS011;24847;48.218;16.414;2022-08-04T05:52:20;6.30;;;3.90;;
39102;SDS011;24847;48.218;16.414;2022-08-04T05:57:23;6.72;;;4.45;;
39102;SDS011;24847;48.218;16.414;2022-08-04T06:02:28;5.22;;;4.28;;
39102;SDS011;24847;48.218;16.414;2022-08-04T06:07:31;9.70;;;4.80;;
39102;SDS011;24847;48.218;16.414;2022-08-04T06:12:35;7.20;;;4.72;;
39102;SDS011;24847;48.218;16.414;2022-08-04T06:17:45;6.82;;;4.20;;
39102;SDS011;24847;48.218;16.414;2022-08-04T06:22:52;4.60;;;4.20;;
39102;SDS011;24847;48.218;16.414;2022-08-04T06:27:57;4.63;;;3.80;;
39102;SDS011;24847;48.218;16.414;2022-08-04T06:33:03;7.60;;;3.80;;
39102;SDS011;24847;48.218;16.414;2022-08-04T06:38:24;5.20;;;3.78;;
39102;SDS011;24847;48.218;16.414;2022-08-04T06:43:29;4.30;;;3.55;;
39102;SDS011;24847;48.218;16.414;2022-08-04T06:48:34;3.22;;;2.92;;
39102;SDS011;24847;48.218;16.414;2022-08-04T06:53:36;3.78;;;3.25;;
39102;SDS011;24847;48.218;16.414;2022-08-04T06:58:39;3.55;;;3.00;;
39102;SDS011;24847;48.218;16.414;2022-08-04T07:03:43;3.28;;;2.97;;
39102;SDS011;24847;48.218;16.414;2022-08-04T07:08:45;3.50;;;2.95;;
39102;SDS011;24847;48.218;16.414;2022-08-04T07:13:48;2.75;;;2.53;;
39102;SDS011;24847;48.218;16.414;2022-08-04T07:18:53;3.55;;;3.08;;
39102;SDS011;24847;48.218;16.414;2022-08-04T07:23:55;5.18;;;2.95;;
39102;SDS011;24847;48.218;16.414;2022-08-04T07:28:57;5.13;;;4.18;;
39102;SDS011;24847;48.218;16.414;2022-08-04T07:34:01;3.65;;;3.35;;
39102;SDS011;24847;48.218;16.414;2022-08-04T07:39:04;6.72;;;3.30;;
39102;SDS011;24847;48.218;16.414;2022-08-04T07:44:07;5.05;;;2.75;;
39102;SDS011;24847;48.218;16.414;2022-08-04T07:49:15;2.93;;;2.73;;
39102;SDS011;24847;48.218;16.414;2022-08-04T07:54:19;2.70;;;2.50;;
39102;SDS011;24847;48.218;16.414;2022-08-04T07:59:22;3.63;;;2.50;;
39102;SDS011;24847;48.218;16.414;2022-08-04T08:04:26;2.58;;;2.38;;
39102;SDS011;24847;48.218;16.414;2022-08-04T08:09:29;2.88;;;2.40;;
39102;SDS011;24847;48.218;16.414;2022-08-04T08:14:34;3.10;;;2.50;;
39102;SDS011;24847;48.218;16.414;2022-08-04T08:19:38;2.70;;;2.45;;
39102;SDS011;24847;48.218;16.414;2022-08-04T08:24:41;2.30;;;2.10;;
39102;SDS011;24847;48.218;16.414;2022-08-04T08:29:44;4.22;;;2.22;;
39102;SDS011;24847;48.218;16.414;2022-08-04T08:34:49;2.58;;;2.38;;
39102;SDS011;24847;48.218;16.414;2022-08-04T08:39:52;3.42;;;2.30;;
39102;SDS011;24847;48.218;16.414;2022-08-04T08:45:18;2.28;;;2.08;;
39102;SDS011;24847;48.218;16.414;2022-08-04T08:50:46;3.15;;;2.00;;
39102;SDS011;24847;48.218;16.414;2022-08-04T08:56:15;1.98;;;1.75;;
39102;SDS011;24847;48.218;16.414;2022-08-04T09:01:36;2.07;;;1.87;;
39102;SDS011;24847;48.218;16.414;2022-08-04T09:07:05;3.60;;;2.30;;
39102;SDS011;24847;48.218;16.414;2022-08-04T09:12:25;3.40;;;1.90;;
39102;SDS011;24847;48.218;16.414;2022-08-04T09:17:35;4.97;;;2.33;;
39102;SDS011;24847;48.218;16.414;2022-08-04T09:22:45;2.78;;;1.83;;
39102;SDS011;24847;48.218;16.414;2022-08-04T09:27:53;2.85;;;1.80;;
39102;SDS011;24847;48.218;16.414;2022-08-04T09:32:59;2.65;;;2.03;;
39102;SDS011;24847;48.218;16.414;2022-08-04T09:38:16;3.40;;;1.85;;
39102;SDS011;24847;48.218;16.414;2022-08-04T09:43:31;1.95;;;1.77;;
39102;SDS011;24847;48.218;16.414;2022-08-04T09:48:51;2.75;;;1.83;;
39102;SDS011;24847;48.218;16.414;2022-08-04T09:54:02;1.95;;;1.85;;
39102;SDS011;24847;48.218;16.414;2022-08-04T09:59:17;2.67;;;1.60;;
39102;SDS011;24847;48.218;16.414;2022-08-04T10:04:26;2.00;;;1.88;;
39102;SDS011;24847;48.218;16.414;2022-08-04T10:15:18;1.70;;;1.40;;
39102;SDS011;24847;48.218;16.414;2022-08-04T10:26:09;2.10;;;1.70;;
39102;SDS011;24847;48.218;16.414;2022-08-04T10:31:38;1.60;;;1.50;;
39102;SDS011;24847;48.218;16.414;2022-08-04T10:36:48;1.80;;;1.30;;
39102;SDS011;24847;48.218;16.414;2022-08-04T10:42:02;2.63;;;2.42;;
39102;SDS011;24847;48.218;16.414;2022-08-04T10:47:15;1.40;;;1.30;;
39102;SDS011;24847;48.218;16.414;2022-08-04T10:52:23;2.03;;;1.63;;
39102;SDS011;24847;48.218;16.414;2022-08-04T10:57:36;3.47;;;1.30;;
39102;SDS011;24847;48.218;16.414;2022-08-04T11:02:45;1.52;;;1.30;;
39102;SDS011;24847;48.218;16.414;2022-08-04T11:07:56;1.75;;;1.25;;
39102;SDS011;24847;48.218;16.414;2022-08-04T11:13:05;2.92;;;1.58;;
39102;SDS011;24847;48.218;16.414;2022-08-04T11:18:14;2.00;;;1.70;;
39102;SDS011;24847;48.218;16.414;2022-08-04T11:23:27;2.28;;;1.30;;
39102;SDS011;24847;48.218;16.414;2022-08-04T11:28:38;1.70;;;1.25;;
39102;SDS011;24847;48.218;16.414;2022-08-04T11:33:51;1.67;;;1.25;;
39102;SDS011;24847;48.218;16.414;2022-08-04T11:39:05;3.15;;;2.40;;
39102;SDS011;24847;48.218;16.414;2022-08-04T11:44:18;1.90;;;1.60;;
39102;SDS011;24847;48.218;16.414;2022-08-04T11:49:30;1.60;;;1.50;;
39102;SDS011;24847;48.218;16.414;2022-08-04T11:54:40;1.55;;;1.45;;
39102;SDS011;24847;48.218;16.414;2022-08-04T11:59:46;2.00;;;1.30;;
39102;SDS011;24847;48.218;16.414;2022-08-04T12:04:53;2.58;;;1.70;;
39102;SDS011;24847;48.218;16.414;2022-08-04T12:10:02;4.07;;;1.50;;
39102;SDS011;24847;48.218;16.414;2022-08-04T12:15:17;1.52;;;1.30;;
39102;SDS011;24847;48.218;16.414;2022-08-04T12:20:28;2.30;;;1.40;;
39102;SDS011;24847;48.218;16.414;2022-08-04T12:25:35;2.13;;;1.50;;
39102;SDS011;24847;48.218;16.414;2022-08-04T12:30:44;1.63;;;1.40;;
39102;SDS011;24847;48.218;16.414;2022-08-04T12:35:54;2.13;;;1.20;;
39102;SDS011;24847;48.218;16.414;2022-08-04T12:41:06;2.85;;;1.35;;
39102;SDS011;24847;48.218;16.414;2022-08-04T12:46:16;1.60;;;1.50;;
39102;SDS011;24847;48.218;16.414;2022-08-04T12:51:21;1.70;;;1.60;;
39102;SDS011;24847;48.218;16.414;2022-08-04T12:56:28;1.83;;;1.48;;
39102;SDS011;24847;48.218;16.414;2022-08-04T13:01:33;2.00;;;1.48;;
39102;SDS011;24847;48.218;16.414;2022-08-04T13:06:36;1.20;;;1.17;;
39102;SDS011;24847;48.218;16.414;2022-08-04T13:11:40;1.58;;;1.27;;
39102;SDS011;24847;48.218;16.414;2022-08-04T13:16:47;2.03;;;1.48;;
39102;SDS011;24847;48.218;16.414;2022-08-04T13:21:57;1.60;;;1.50;;
39102;SDS011;24847;48.218;16.414;2022-08-04T13:27:01;1.38;;;1.27;;
39102;SDS011;24847;48.218;16.414;2022-08-04T13:32:10;1.60;;;1.50;;
39102;SDS011;24847;48.218;16.414;2022-08-04T13:37:18;1.50;;;1.40;;
39102;SDS011;24847;48.218;16.414;2022-08-04T13:42:26;5.82;;;5.32;;
39102;SDS011;24847;48.218;16.414;2022-08-04T13:47:31;1.92;;;1.83;;
39102;SDS011;24847;48.218;16.414;2022-08-04T13:52:37;2.15;;;1.30;;
39102;SDS011;24847;48.218;16.414;2022-08-04T13:57:42;3.53;;;1.40;;
39102;SDS011;24847;48.218;16.414;2022-08-04T14:02:50;2.10;;;1.40;;
39102;SDS011;24847;48.218;16.414;2022-08-04T14:08:04;1.33;;;1.23;;
39102;SDS011;24847;48.218;16.414;2022-08-04T14:18:21;1.40;;;1.30;;
39102;SDS011;24847;48.218;16.414;2022-08-04T14:23:25;1.38;;;1.25;;
39102;SDS011;24847;48.218;16.414;2022-08-04T14:28:28;1.80;;;1.40;;
39102;SDS011;24847;48.218;16.414;2022-08-04T14:33:36;2.58;;;1.30;;
39102;SDS011;24847;48.218;16.414;2022-08-04T14:38:40;1.67;;;1.52;;
39102;SDS011;24847;48.218;16.414;2022-08-04T14:43:51;2.58;;;1.40;;
39102;SDS011;24847;48.218;16.414;2022-08-04T14:49:00;1.85;;;1.73;;
39102;SDS011;24847;48.218;16.414;2022-08-04T14:54:06;4.25;;;3.90;;
39102;SDS011;24847;48.218;16.414;2022-08-04T14:59:10;3.00;;;1.55;;
39102;SDS011;24847;48.218;16.414;2022-08-04T15:04:13;3.63;;;1.40;;
39102;SDS011;24847;48.218;16.414;2022-08-04T15:09:16;2.85;;;1.73;;
39102;SDS011;24847;48.218;16.414;2022-08-04T15:14:21;2.67;;;2.40;;
39102;SDS011;24847;48.218;16.414;2022-08-04T15:19:25;5.20;;;4.70;;
39102;SDS011;24847;48.218;16.414;2022-08-04T15:24:27;2.20;;;2.00;;
39102;SDS011;24847;48.218;16.414;2022-08-04T15:29:30;4.38;;;1.50;;
39102;SDS011;24847;48.218;16.414;2022-08-04T15:34:44;1.48;;;1.38;;
39102;SDS011;24847;48.218;16.414;2022-08-04T15:39:47;1.30;;;1.20;;
39102;SDS011;24847;48.218;16.414;2022-08-04T15:45:11;1.88;;;1.45;;
39102;SDS011;24847;48.218;16.414;2022-08-04T15:50:21;2.40;;;1.55;;
39102;SDS011;24847;48.218;16.414;2022-08-04T15:55:30;1.30;;;1.20;;
39102;SDS011;24847;48.218;16.414;2022-08-04T16:11:44;1.67;;;1.53;;
39102;SDS011;24847;48.218;16.414;2022-08-04T16:16:47;1.98;;;1.20;;
39102;SDS011;24847;48.218;16.414;2022-08-04T16:21:51;1.35;;;1.25;;
39102;SDS011;24847;48.218;16.414;2022-08-04T16:26:55;1.40;;;1.30;;
39102;SDS011;24847;48.218;16.414;2022-08-04T16:32:09;1.50;;;1.40;;
39102;SDS011;24847;48.218;16.414;2022-08-04T16:37:16;1.42;;;1.08;;
39102;SDS011;24847;48.218;16.414;2022-08-04T16:42:29;1.70;;;1.25;;
39102;SDS011;24847;48.218;16.414;2022-08-04T16:53:08;4.10;;;2.88;;
39102;SDS011;24847;48.218;16.414;2022-08-04T16:58:12;1.70;;;1.58;;
39102;SDS011;24847;48.218;16.414;2022-08-04T17:03:15;1.40;;;1.30;;
39102;SDS011;24847;48.218;16.414;2022-08-04T17:08:18;2.10;;;1.27;;
39102;SDS011;24847;48.218;16.414;2022-08-04T17:13:22;0.93;;;0.93;;
39102;SDS011;24847;48.218;16.414;2022-08-04T17:18:30;4.07;;;3.45;;
39102;SDS011;24847;48.218;16.414;2022-08-04T17:23:37;3.20;;;2.40;;
39102;SDS011;24847;48.218;16.414;2022-08-04T17:28:40;1.75;;;1.52;;
39102;SDS011;24847;48.218;16.414;2022-08-04T17:33:48;3.72;;;3.42;;
39102;SDS011;24847;48.218;16.414;2022-08-04T17:38:56;3.70;;;2.40;;
39102;SDS011;24847;48.218;16.414;2022-08-04T17:44:00;2.95;;;1.73;;
39102;SDS011;24847;48.218;16.414;2022-08-04T17:49:09;2.80;;;1.50;;
39102;SDS011;24847;48.218;16.414;2022-08-04T17:54:27;5.57;;;5.05;;
39102;SDS011;24847;48.218;16.414;2022-08-04T17:59:39;3.88;;;3.45;;
39102;SDS011;24847;48.218;16.414;2022-08-04T18:04:48;1.90;;;1.50;;
39102;SDS011;24847;48.218;16.414;2022-08-04T18:09:54;1.95;;;1.42;;
39102;SDS011;24847;48.218;16.414;2022-08-04T18:14:58;2.15;;;1.73;;
39102;SDS011;24847;48.218;16.414;2022-08-04T18:20:03;2.65;;;1.83;;
39102;SDS011;24847;48.218;16.414;2022-08-04T18:25:10;3.10;;;1.40;;
39102;SDS011;24847;48.218;16.414;2022-08-04T18:30:14;6.65;;;3.15;;
39102;SDS011;24847;48.218;16.414;2022-08-04T18:35:16;3.45;;;2.97;;
39102;SDS011;24847;48.218;16.414;2022-08-04T18:40:21;2.05;;;1.55;;
39102;SDS011;24847;48.218;16.414;2022-08-04T18:45:23;1.70;;;1.35;;
39102;SDS011;24847;48.218;16.414;2022-08-04T18:50:26;3.20;;;1.52;;
39102;SDS011;24847;48.218;16.414;2022-08-04T18:55:30;3.10;;;1.30;;
39102;SDS011;24847;48.218;16.414;2022-08-04T19:00:32;4.25;;;1.50;;
39102;SDS011;24847;48.218;16.414;2022-08-04T19:05:34;5.57;;;3.55;;
39102;SDS011;24847;48.218;16.414;2022-08-04T19:10:38;2.50;;;2.17;;
39102;SDS011;24847;48.218;16.414;2022-08-04T19:15:40;4.97;;;1.60;;
39102;SDS011;24847;48.218;16.414;2022-08-04T19:20:42;4.03;;;1.60;;
39102;SDS011;24847;48.218;16.414;2022-08-04T19:25:47;3.65;;;2.63;;
39102;SDS011;24847;48.218;16.414;2022-08-04T19:30:50;2.30;;;2.10;;
39102;SDS011;24847;48.218;16.414;2022-08-04T19:35:53;3.80;;;2.47;;
39102;SDS011;24847;48.218;16.414;2022-08-04T19:40:57;4.05;;;3.00;;
39102;SDS011;24847;48.218;16.414;2022-08-04T19:45:59;7.00;;;4.22;;
39102;SDS011;24847;48.218;16.414;2022-08-04T19:51:02;5.40;;;2.72;;
39102;SDS011;24847;48.218;16.414;2022-08-04T19:56:06;6.45;;;4.93;;
39102;SDS011;24847;48.218;16.414;2022-08-04T20:01:08;5.05;;;3.60;;
39102;SDS011;24847;48.218;16.414;2022-08-04T20:06:11;5.70;;;4.90;;
39102;SDS011;24847;48.218;16.414;2022-08-04T20:11:14;3.45;;;2.30;;
39102;SDS011;24847;48.218;16.414;2022-08-04T20:16:19;3.53;;;1.65;;
39102;SDS011;24847;48.218;16.414;2022-08-04T20:21:22;2.55;;;1.80;;
39102;SDS011;24847;48.218;16.414;2022-08-04T20:26:25;2.60;;;2.20;;
39102;SDS011;24847;48.218;16.414;2022-08-04T20:31:28;3.42;;;2.10;;
39102;SDS011;24847;48.218;16.414;2022-08-04T20:36:30;6.40;;;2.20;;
39102;SDS011;24847;48.218;16.414;2022-08-04T20:41:33;2.15;;;1.75;;
39102;SDS011;24847;48.218;16.414;2022-08-04T20:46:36;2.95;;;1.70;;
39102;SDS011;24847;48.218;16.414;2022-08-04T20:51:38;6.47;;;2.97;;
39102;SDS011;24847;48.218;16.414;2022-08-04T20:56:44;3.85;;;2.60;;
39102;SDS011;24847;48.218;16.414;2022-08-04T21:01:46;3.40;;;2.08;;
39102;SDS011;24847;48.218;16.414;2022-08-04T21:06:49;3.92;;;2.63;;
39102;SDS011;24847;48.218;16.414;2022-08-04T21:11:52;2.97;;;2.20;;
39102;SDS011;24847;48.218;16.414;2022-08-04T21:16:55;5.13;;;1.90;;
39102;SDS011;24847;48.218;16.414;2022-08-04T21:21:58;3.70;;;1.90;;
39102;SDS011;24847;48.218;16.414;2022-08-04T21:27:01;2.63;;;2.10;;
39102;SDS011;24847;48.218;16.414;2022-08-04T21:32:05;5.55;;;2.80;;
39102;SDS011;24847;48.218;16.414;2022-08-04T21:37:08;5.00;;;2.38;;
39102;SDS011;24847;48.218;16.414;2022-08-04T21:42:13;3.10;;;2.15;;
39102;SDS011;24847;48.218;16.414;2022-08-04T21:47:15;4.15;;;2.03;;
39102;SDS011;24847;48.218;16.414;2022-08-04T21:52:18;2.85;;;2.10;;
39102;SDS011;24847;48.218;16.414;2022-08-04T21:57:21;3.35;;;1.83;;
39102;SDS011;24847;48.218;16.414;2022-08-04T22:02:23;2.58;;;2.30;;
39102;SDS011;24847;48.218;16.414;2022-08-04T22:07:26;3.58;;;2.20;;
39102;SDS011;24847;48.218;16.414;2022-08-04T22:12:31;2.95;;;2.00;;
39102;SDS011;24847;48.218;16.414;2022-08-04T22:17:33;3.00;;;2.38;;
39102;SDS011;24847;48.218;16.414;2022-08-04T22:22:36;3.47;;;2.50;;
39102;SDS011;24847;48.218;16.414;2022-08-04T22:27:41;4.15;;;2.53;;
39102;SDS011;24847;48.218;16.414;2022-08-04T22:33:04;2.30;;;2.10;;
39102;SDS011;24847;48.218;16.414;2022-08-04T22:38:08;3.63;;;2.42;;
39102;SDS011;24847;48.218;16.414;2022-08-04T22:43:12;2.55;;;2.33;;
39102;SDS011;24847;48.218;16.414;2022-08-04T22:48:14;3.63;;;2.80;;
39102;SDS011;24847;48.218;16.414;2022-08-04T22:53:17;4.32;;;2.40;;
39102;SDS011;24847;48.218;16.414;2022-08-04T22:58:20;5.30;;;2.30;;
39102;SDS011;24847;48.218;16.414;2022-08-04T23:03:23;2.75;;;2.10;;
39102;SDS011;24847;48.218;16.414;2022-08-04T23:08:25;4.47;;;2.38;;
39102;SDS011;24847;48.218;16.414;2022-08-04T23:13:29;3.45;;;2.83;;
39102;SDS011;24847;48.218;16.414;2022-08-04T23:18:32;2.70;;;1.92;;
39102;SDS011;24847;48.218;16.414;2022-08-04T23:23:34;3.60;;;2.85;;
39102;SDS011;24847;48.218;16.414;2022-08-04T23:28:38;3.72;;;2.88;;
39102;SDS011;24847;48.218;16.414;2022-08-04T23:33:41;5.20;;;2.90;;
39102;SDS011;24847;48.218;16.414;2022-08-04T23:38:43;3.47;;;2.70;;
39102;SDS011;24847;48.218;16.414;2022-08-04T23:43:47;6.05;;;3.33;;
39102;SDS011;24847;48.218;16.414;2022-08-04T23:48:49;5.05;;;3.03;;
39102;SDS011;24847;48.218;16.414;2022-08-04T23:53:52;4.68;;;3.08;;
39102;SDS011;24847;48.218;16.414;2022-08-04T23:58:56;4.50;;;3.33;;
